createdAt,value
2018-10-01T00:01:13.507Z,84.15
2018-10-01T00:03:42.374Z,84.00
2018-10-01T00:06:11.012Z,83.96
2018-10-01T00:08:39.821Z,83.94
2018-10-01T00:11:08.092Z,84.03
2018-10-01T00:13:36.692Z,84.06
2018-10-01T00:16:05.771Z,84.23
2018-10-01T00:18:34.972Z,84.47
2018-10-01T00:21:09.120Z,84.21
2018-10-01T00:23:37.697Z,84.63
2018-10-01T00:26:06.492Z,84.57
2018-10-01T00:28:35.363Z,84.55
2018-10-01T00:31:04.053Z,84.53
2018-10-01T00:33:32.603Z,84.49
2018-10-01T00:36:00.989Z,84.42
2018-10-01T00:38:29.747Z,84.42
2018-10-01T00:40:58.490Z,84.34
2018-10-01T00:43:27.469Z,84.29
2018-10-01T00:45:55.850Z,84.20
2018-10-01T00:48:24.241Z,84.19
2018-10-01T00:50:52.891Z,84.26
2018-10-01T00:53:21.325Z,84.29
2018-10-01T00:55:49.901Z,84.26
2018-10-01T00:58:18.324Z,84.20
2018-10-01T01:00:46.941Z,84.22
2018-10-01T01:03:15.125Z,84.27
2018-10-01T01:05:44.002Z,84.52
2018-10-01T01:08:12.986Z,84.71
2018-10-01T01:10:41.376Z,84.80
2018-10-01T01:13:11.554Z,85.04
2018-10-01T01:15:40.641Z,85.09
2018-10-01T01:18:09.428Z,85.11
2018-10-01T01:20:37.696Z,85.12
2018-10-01T01:23:06.683Z,84.95
2018-10-01T01:25:35.421Z,84.80
2018-10-01T01:28:04.929Z,84.85
2018-10-01T01:30:33.826Z,85.06
2018-10-01T01:33:03.450Z,85.02
2018-10-01T01:35:32.061Z,85.12
2018-10-01T01:38:00.598Z,84.96
2018-10-01T01:40:28.764Z,84.90
2018-10-01T01:42:57.997Z,85.03
2018-10-01T01:45:27.955Z,85.48
2018-10-01T01:47:56.252Z,85.92
2018-10-01T01:50:25.383Z,86.40
2018-10-01T01:52:54.117Z,86.88
2018-10-01T01:55:24.554Z,87.10
2018-10-01T01:57:53.099Z,87.11
2018-10-01T02:00:21.567Z,87.08
2018-10-01T02:02:50.286Z,87.12
2018-10-01T02:05:19.407Z,87.27
2018-10-01T02:07:47.648Z,87.42
2018-10-01T02:10:16.847Z,87.62
2018-10-01T02:12:46.968Z,87.71
2018-10-01T02:15:15.512Z,87.80
2018-10-01T02:17:44.303Z,87.82
2018-10-01T02:20:13.573Z,87.96
2018-10-01T02:22:43.722Z,88.14
2018-10-01T02:25:12.641Z,88.32
2018-10-01T02:27:42.849Z,88.59
2018-10-01T02:30:11.100Z,88.84
2018-10-01T02:32:40.966Z,89.01
2018-10-01T02:35:11.863Z,89.09
2018-10-01T02:37:40.029Z,89.37
2018-10-01T02:40:08.361Z,89.53
2018-10-01T02:42:38.770Z,89.77
2018-10-01T02:45:09.631Z,89.98
2018-10-01T02:47:38.331Z,89.94
2018-10-01T02:50:07.319Z,89.83
2018-10-01T02:52:41.365Z,89.85
2018-10-01T02:55:09.958Z,89.94
2018-10-01T02:57:39.088Z,89.95
2018-10-01T03:00:08.366Z,89.90
2018-10-01T03:02:38.052Z,89.80
2018-10-01T03:05:07.193Z,89.80
2018-10-01T03:07:36.606Z,89.83
2018-10-01T03:10:05.149Z,89.90
2018-10-01T03:12:34.110Z,89.95
2018-10-01T03:15:03.609Z,90.11
2018-10-01T03:17:34.347Z,90.18
2018-10-01T03:20:03.508Z,90.18
2018-10-01T03:22:32.264Z,90.30
2018-10-01T03:25:00.642Z,90.65
2018-10-01T03:27:29.528Z,90.69
2018-10-01T03:29:57.914Z,90.62
2018-10-01T03:32:26.281Z,90.55
2018-10-01T03:34:55.081Z,90.62
2018-10-01T03:37:23.589Z,90.69
2018-10-01T03:39:51.922Z,90.66
2018-10-01T03:42:21.765Z,90.72
2018-10-01T03:44:51.428Z,90.67
2018-10-01T03:47:20.020Z,90.58
2018-10-01T03:49:48.925Z,90.55
2018-10-01T03:52:17.797Z,90.61
2018-10-01T03:54:46.859Z,90.73
2018-10-01T03:57:16.126Z,90.80
2018-10-01T03:59:44.449Z,90.83
2018-10-01T04:02:13.291Z,90.87
2018-10-01T04:04:41.653Z,90.91
2018-10-01T04:07:10.113Z,90.89
2018-10-01T04:09:38.823Z,90.81
2018-10-01T04:12:07.516Z,90.71
2018-10-01T04:14:35.959Z,90.71
2018-10-01T04:17:04.059Z,90.62
2018-10-01T04:19:32.418Z,90.75
2018-10-01T04:22:01.441Z,90.83
2018-10-01T04:24:30.117Z,90.83
2018-10-01T04:26:58.381Z,90.78
2018-10-01T04:29:27.318Z,90.76
2018-10-01T04:31:55.710Z,90.79
2018-10-01T04:34:24.256Z,90.84
2018-10-01T04:36:55.341Z,90.93
2018-10-01T04:39:27.065Z,90.96
2018-10-01T04:41:58.202Z,91.03
2018-10-01T04:44:31.703Z,90.97
2018-10-01T04:47:03.570Z,90.98
2018-10-01T04:49:36.754Z,90.99
2018-10-01T04:52:05.572Z,91.01
2018-10-01T04:54:34.950Z,91.09
2018-10-01T04:57:03.613Z,91.11
2018-10-01T04:59:32.583Z,91.21
2018-10-01T05:02:01.146Z,91.19
2018-10-01T05:04:29.578Z,91.21
2018-10-01T05:06:57.737Z,91.26
2018-10-01T05:09:26.163Z,91.41
2018-10-01T05:11:54.480Z,91.52
2018-10-01T05:14:23.149Z,91.65
2018-10-01T05:16:51.589Z,91.75
2018-10-01T05:19:20.190Z,91.76
2018-10-01T05:21:48.528Z,91.74
2018-10-01T05:24:17.030Z,91.73
2018-10-01T05:26:45.450Z,91.71
2018-10-01T05:29:14.371Z,91.61
2018-10-01T05:31:42.456Z,91.52
2018-10-01T05:34:10.895Z,91.56
2018-10-01T05:36:39.178Z,91.61
2018-10-01T05:39:10.311Z,91.62
2018-10-01T05:41:38.965Z,91.74
2018-10-01T05:44:07.766Z,91.87
2018-10-01T05:46:36.488Z,91.93
2018-10-01T05:49:04.700Z,91.93
2018-10-01T05:51:34.492Z,92.06
2018-10-01T05:54:03.508Z,92.09
2018-10-01T05:56:32.757Z,92.15
2018-10-01T05:59:01.354Z,92.22
2018-10-01T06:01:30.122Z,92.18
2018-10-01T06:03:58.513Z,92.14
2018-10-01T06:06:27.385Z,92.07
2018-10-01T06:08:56.184Z,91.99
2018-10-01T06:11:26.219Z,91.86
2018-10-01T06:13:55.742Z,91.75
2018-10-01T06:16:25.898Z,91.71
2018-10-01T06:18:54.170Z,91.69
2018-10-01T06:21:23.640Z,91.68
2018-10-01T06:23:51.767Z,91.66
2018-10-01T06:26:20.005Z,91.60
2018-10-01T06:28:49.354Z,91.46
2018-10-01T06:31:17.525Z,91.35
2018-10-01T06:33:46.559Z,91.22
2018-10-01T06:36:15.743Z,91.15
2018-10-01T06:38:44.503Z,91.13
2018-10-01T06:41:13.723Z,91.23
2018-10-01T06:43:43.636Z,91.14
2018-10-01T06:46:12.362Z,90.94
2018-10-01T06:48:41.357Z,90.61
2018-10-01T06:51:10.112Z,90.33
2018-10-01T06:53:38.211Z,90.10
2018-10-01T06:56:06.689Z,89.92
2018-10-01T06:58:35.500Z,89.90
2018-10-01T07:01:03.842Z,89.87
2018-10-01T07:03:32.178Z,89.93
2018-10-01T07:06:00.822Z,89.95
2018-10-01T07:08:28.720Z,89.90
2018-10-01T07:10:56.819Z,89.85
2018-10-01T07:13:25.812Z,89.77
2018-10-01T07:15:53.909Z,89.66
2018-10-01T07:18:22.076Z,89.50
2018-10-01T07:20:50.586Z,89.20
2018-10-01T07:23:18.798Z,89.06
2018-10-01T07:25:46.929Z,89.04
2018-10-01T07:28:15.266Z,89.07
2018-10-01T07:30:43.482Z,89.20
2018-10-01T07:33:11.696Z,89.41
2018-10-01T07:35:40.692Z,89.61
2018-10-01T07:38:09.888Z,89.90
2018-10-01T07:40:38.634Z,90.31
2018-10-01T07:43:06.852Z,90.61
2018-10-01T07:45:35.981Z,90.59
2018-10-01T07:48:04.162Z,90.36
2018-10-01T07:50:32.721Z,89.67
2018-10-01T07:53:01.211Z,89.11
2018-10-01T07:55:29.916Z,88.70
2018-10-01T07:57:58.460Z,88.17
2018-10-01T08:00:39.625Z,87.65
2018-10-01T08:03:08.047Z,87.27
2018-10-01T08:05:36.634Z,87.23
2018-10-01T08:08:05.049Z,86.95
2018-10-01T08:10:33.650Z,85.61
2018-10-01T08:13:02.127Z,85.04
2018-10-01T08:15:30.333Z,85.29
2018-10-01T08:17:58.547Z,86.27
2018-10-01T08:20:26.669Z,87.02
2018-10-01T08:22:54.804Z,88.45
2018-10-01T08:25:23.473Z,89.90
2018-10-01T08:27:51.565Z,90.85
2018-10-01T08:30:19.644Z,91.95
2018-10-01T08:32:47.747Z,93.15
2018-10-01T08:35:16.135Z,93.37
2018-10-01T08:37:44.212Z,93.71
2018-10-01T08:40:12.470Z,94.25
2018-10-01T08:42:40.590Z,94.66
2018-10-01T08:45:08.764Z,95.57
2018-10-01T08:47:37.716Z,95.94
2018-10-01T08:50:11.530Z,96.11
2018-10-01T08:52:52.736Z,96.13
2018-10-01T08:55:24.428Z,95.67
2018-10-01T08:57:52.697Z,95.28
2018-10-01T09:00:20.904Z,94.48
2018-10-01T09:02:49.150Z,93.89
2018-10-01T09:05:17.639Z,93.69
2018-10-01T09:07:47.905Z,93.29
2018-10-01T09:10:16.514Z,92.77
2018-10-01T09:12:46.388Z,92.08
2018-10-01T09:15:15.123Z,91.83
2018-10-01T09:17:44.890Z,91.61
2018-10-01T09:20:13.141Z,91.45
2018-10-01T09:22:42.301Z,91.70
2018-10-01T09:25:10.386Z,91.87
2018-10-01T09:27:39.131Z,91.95
2018-10-01T09:30:07.673Z,92.14
2018-10-01T09:32:36.057Z,92.71
2018-10-01T09:35:04.434Z,92.96
2018-10-01T09:37:33.239Z,93.31
2018-10-01T09:40:01.716Z,93.70
2018-10-01T09:42:30.263Z,94.43
2018-10-01T09:44:59.146Z,94.79
2018-10-01T09:47:27.312Z,95.28
2018-10-01T09:49:55.711Z,95.67
2018-10-01T09:52:28.963Z,96.38
2018-10-01T09:54:57.795Z,97.06
2018-10-01T09:57:26.206Z,97.65
2018-10-01T09:59:54.870Z,97.69
2018-10-01T10:02:22.994Z,98.00
2018-10-01T10:04:51.586Z,97.81
2018-10-01T10:07:20.421Z,96.85
2018-10-01T10:09:48.697Z,96.13
2018-10-01T10:12:16.880Z,95.69
2018-10-01T10:14:45.750Z,95.36
2018-10-01T10:17:14.619Z,95.43
2018-10-01T10:19:42.858Z,95.61
2018-10-01T10:22:12.238Z,96.04
2018-10-01T10:24:41.395Z,96.00
2018-10-01T10:27:14.496Z,95.38
2018-10-01T10:29:44.061Z,94.69
2018-10-01T10:32:12.547Z,93.90
2018-10-01T10:34:40.973Z,93.70
2018-10-01T10:37:09.847Z,93.31
2018-10-01T10:39:38.153Z,92.90
2018-10-01T10:42:06.373Z,92.81
2018-10-01T10:44:35.034Z,92.89
2018-10-01T10:47:03.841Z,93.07
2018-10-01T10:49:32.369Z,93.15
2018-10-01T10:52:01.421Z,93.47
2018-10-01T10:54:30.385Z,93.53
2018-10-01T10:56:58.678Z,93.80
2018-10-01T10:59:28.182Z,94.37
2018-10-01T11:01:56.545Z,94.67
2018-10-01T11:04:25.466Z,94.12
2018-10-01T11:06:54.452Z,93.39
2018-10-01T11:09:22.926Z,93.39
2018-10-01T11:11:51.509Z,93.12
2018-10-01T11:14:20.061Z,93.13
2018-10-01T11:16:48.347Z,93.43
2018-10-01T11:19:17.222Z,93.98
2018-10-01T11:21:45.482Z,94.10
2018-10-01T11:24:13.634Z,94.03
2018-10-01T11:26:42.589Z,93.48
2018-10-01T11:29:11.766Z,92.81
2018-10-01T11:31:40.394Z,92.51
2018-10-01T11:34:09.012Z,91.64
2018-10-01T11:36:38.311Z,90.69
2018-10-01T11:39:11.908Z,90.32
2018-10-01T11:41:40.213Z,87.41
2018-10-01T11:44:08.886Z,84.90
2018-10-01T11:46:37.581Z,82.64
2018-10-01T11:49:05.742Z,80.99
2018-10-01T11:51:35.080Z,77.94
2018-10-01T11:54:05.842Z,76.09
2018-10-01T11:56:34.284Z,75.83
2018-10-01T11:59:03.825Z,74.25
2018-10-01T12:01:32.377Z,73.47
2018-10-01T12:04:00.674Z,71.93
2018-10-01T12:06:28.947Z,70.46
2018-10-01T12:08:57.076Z,70.04
2018-10-01T12:11:25.720Z,70.23
2018-10-01T12:13:55.111Z,70.12
2018-10-01T12:16:23.997Z,68.68
2018-10-01T12:18:52.470Z,68.34
2018-10-01T12:21:21.054Z,67.91
2018-10-01T12:23:50.220Z,68.11
2018-10-01T12:26:18.367Z,68.71
2018-10-01T12:28:46.792Z,66.97
2018-10-01T12:31:15.182Z,67.12
2018-10-01T12:33:43.507Z,68.90
2018-10-01T12:36:12.691Z,71.27
2018-10-01T12:38:41.979Z,72.21
2018-10-01T12:41:10.346Z,72.82
2018-10-01T12:43:38.829Z,71.35
2018-10-01T12:46:07.318Z,71.85
2018-10-01T12:48:37.128Z,71.61
2018-10-01T12:51:05.763Z,71.21
2018-10-01T12:53:34.234Z,72.42
2018-10-01T12:56:02.614Z,74.54
2018-10-01T12:58:31.144Z,75.61
2018-10-01T13:00:59.259Z,76.72
2018-10-01T13:03:27.618Z,77.47
2018-10-01T13:05:56.378Z,77.74
2018-10-01T13:08:24.497Z,78.06
2018-10-01T13:10:52.804Z,77.27
2018-10-01T13:13:21.728Z,76.89
2018-10-01T13:15:50.133Z,75.40
2018-10-01T13:18:19.334Z,73.95
2018-10-01T13:20:48.013Z,73.02
2018-10-01T13:23:16.632Z,72.50
2018-10-01T13:25:44.977Z,72.57
2018-10-01T13:28:13.492Z,71.55
2018-10-01T13:30:42.015Z,72.55
2018-10-01T13:33:10.373Z,71.44
2018-10-01T13:35:39.359Z,71.85
2018-10-01T13:38:08.250Z,70.90
2018-10-01T13:40:37.574Z,70.78
2018-10-01T13:43:06.618Z,68.63
2018-10-01T13:45:36.119Z,67.95
2018-10-01T13:48:04.779Z,65.90
2018-10-01T13:50:33.452Z,62.32
2018-10-01T13:53:01.682Z,62.60
2018-10-01T13:55:29.833Z,62.56
2018-10-01T13:57:58.793Z,61.59
2018-10-01T14:00:26.883Z,62.44
2018-10-01T14:02:55.351Z,62.91
2018-10-01T14:05:23.840Z,63.66
2018-10-01T14:07:52.093Z,64.77
2018-10-01T14:10:20.718Z,64.92
2018-10-01T14:12:49.383Z,65.45
2018-10-01T14:15:17.545Z,67.65
2018-10-01T14:17:46.125Z,69.70
2018-10-01T14:20:14.272Z,71.52
2018-10-01T14:22:43.022Z,72.63
2018-10-01T14:25:11.702Z,73.58
2018-10-01T14:27:40.181Z,74.00
2018-10-01T14:30:09.264Z,72.58
2018-10-01T14:32:39.084Z,71.60
2018-10-01T14:35:08.136Z,69.98
2018-10-01T14:37:36.709Z,70.90
2018-10-01T14:40:05.920Z,69.64
2018-10-01T14:42:34.271Z,70.87
2018-10-01T14:45:04.271Z,70.91
2018-10-01T14:47:33.693Z,71.20
2018-10-01T14:50:08.055Z,70.81
2018-10-01T14:52:37.067Z,70.45
2018-10-01T14:55:05.884Z,70.14
2018-10-01T14:57:34.085Z,70.71
2018-10-01T15:00:02.802Z,71.45
2018-10-01T15:02:31.309Z,70.43
2018-10-01T15:05:01.989Z,73.76
2018-10-01T15:07:30.852Z,75.31
2018-10-01T15:10:01.379Z,76.20
2018-10-01T15:12:29.860Z,76.51
2018-10-01T15:14:59.721Z,75.77
2018-10-01T15:17:29.236Z,77.08
2018-10-01T15:19:58.151Z,77.44
2018-10-01T15:22:29.244Z,77.98
2018-10-01T15:24:58.246Z,78.75
2018-10-01T15:27:26.621Z,79.47
2018-10-01T15:29:55.351Z,79.43
2018-10-01T15:32:23.591Z,81.09
2018-10-01T15:34:51.957Z,84.28
2018-10-01T15:37:20.424Z,87.45
2018-10-01T15:42:21.689Z,91.27
2018-10-01T15:44:49.948Z,93.74
2018-10-01T15:47:19.585Z,95.53
2018-10-01T15:49:48.189Z,96.67
2018-10-01T15:52:16.824Z,98.04
2018-10-01T15:54:45.366Z,99.28
2018-10-01T15:57:13.973Z,100.00
2018-10-01T15:59:42.272Z,100.00
2018-10-01T16:02:10.399Z,100.00
2018-10-01T16:04:38.599Z,100.00
2018-10-01T16:07:07.454Z,100.00
2018-10-01T16:09:35.650Z,100.00
2018-10-01T16:12:05.329Z,100.00
2018-10-01T16:14:33.819Z,99.89
2018-10-01T16:17:02.122Z,99.33
2018-10-01T16:19:32.038Z,99.52
2018-10-01T16:22:00.453Z,99.83
2018-10-01T16:24:28.781Z,99.77
2018-10-01T16:26:57.615Z,99.48
2018-10-01T16:29:25.809Z,99.22
2018-10-01T16:31:54.762Z,99.00
2018-10-01T16:34:24.558Z,98.90
2018-10-01T16:36:53.065Z,98.39
2018-10-01T16:39:21.213Z,98.83
2018-10-01T16:41:49.857Z,99.17
2018-10-01T16:44:18.117Z,99.30
2018-10-01T16:46:46.697Z,99.15
2018-10-01T16:49:16.383Z,99.17
2018-10-01T16:51:44.848Z,99.14
2018-10-01T16:54:13.034Z,98.90
2018-10-01T16:56:42.077Z,98.77
2018-10-01T16:59:10.259Z,98.47
2018-10-01T17:01:38.505Z,98.10
2018-10-01T17:04:06.937Z,98.07
2018-10-01T17:06:35.080Z,98.34
2018-10-01T17:09:05.662Z,98.59
2018-10-01T17:11:34.147Z,98.75
2018-10-01T17:14:02.459Z,98.76
2018-10-01T17:16:30.716Z,98.65
2018-10-01T17:18:59.124Z,98.74
2018-10-01T17:21:27.481Z,98.92
2018-10-01T17:23:56.069Z,99.03
2018-10-01T17:26:25.324Z,99.75
2018-10-01T17:28:53.754Z,100.00
2018-10-01T17:31:23.193Z,100.00
2018-10-01T17:33:52.468Z,100.00
2018-10-01T17:36:20.695Z,100.00
2018-10-01T17:38:49.562Z,100.00
2018-10-01T17:41:17.752Z,100.00
2018-10-01T17:43:45.951Z,100.00
2018-10-01T17:46:14.977Z,100.00
2018-10-01T17:48:43.237Z,100.00
2018-10-01T17:51:11.530Z,100.00
2018-10-01T17:53:40.098Z,100.00
2018-10-01T17:56:08.649Z,100.00
2018-10-01T17:58:37.364Z,100.00
2018-10-01T18:01:05.571Z,100.00
2018-10-01T18:03:34.210Z,100.00
2018-10-01T18:06:08.655Z,100.00
2018-10-01T18:08:39.813Z,100.00
2018-10-01T18:11:08.054Z,100.00
2018-10-01T18:13:36.937Z,100.00
2018-10-01T18:16:05.163Z,100.00
2018-10-01T18:18:33.635Z,100.00
2018-10-01T18:21:05.667Z,100.00
2018-10-01T18:23:34.857Z,100.00
2018-10-01T18:26:03.270Z,100.00
2018-10-01T18:28:33.253Z,100.00
2018-10-01T18:31:01.562Z,100.00
2018-10-01T18:33:30.033Z,100.00
2018-10-01T18:35:58.754Z,100.00
2018-10-01T18:38:28.379Z,100.00
2018-10-01T18:40:56.682Z,100.00
2018-10-01T18:43:25.247Z,100.00
2018-10-01T18:45:53.388Z,100.00
2018-10-01T18:48:22.029Z,99.64
2018-10-01T18:50:50.278Z,98.96
2018-10-01T18:53:18.451Z,98.53
2018-10-01T18:55:46.830Z,98.09
2018-10-01T18:58:16.364Z,98.00
2018-10-01T19:00:45.463Z,98.15
2018-10-01T19:03:13.867Z,98.17
2018-10-01T19:05:42.740Z,97.98
2018-10-01T19:08:11.154Z,97.86
2018-10-01T19:10:39.879Z,97.64
2018-10-01T19:13:09.360Z,97.86
2018-10-01T19:15:41.190Z,97.91
2018-10-01T19:18:18.207Z,98.03
2018-10-01T19:20:49.379Z,97.89
2018-10-01T19:23:19.105Z,97.83
2018-10-01T19:25:47.595Z,97.81
2018-10-01T19:28:16.388Z,97.73
2018-10-01T19:30:44.638Z,97.79
2018-10-01T19:33:15.120Z,97.94
2018-10-01T19:35:44.530Z,98.14
2018-10-01T19:38:12.956Z,98.19
2018-10-01T19:40:43.717Z,98.34
2018-10-01T19:43:13.490Z,98.56
2018-10-01T19:45:46.158Z,98.71
2018-10-01T19:48:15.011Z,98.73
2018-10-01T19:50:44.636Z,98.59
2018-10-01T19:53:14.295Z,98.39
2018-10-01T19:55:43.785Z,98.21
2018-10-01T19:58:12.367Z,98.10
2018-10-01T20:00:44.059Z,97.84
2018-10-01T20:03:12.986Z,97.81
2018-10-01T20:05:41.544Z,97.82
2018-10-01T20:08:11.868Z,97.83
2018-10-01T20:10:40.419Z,97.58
2018-10-01T20:13:10.329Z,97.38
2018-10-01T20:15:39.614Z,97.23
2018-10-01T20:18:08.480Z,97.13
2018-10-01T20:20:37.730Z,97.05
2018-10-01T20:23:07.628Z,96.79
2018-10-01T20:25:37.612Z,96.85
2018-10-01T20:28:08.335Z,96.94
2018-10-01T20:30:38.342Z,97.09
2018-10-01T20:33:07.888Z,97.42
2018-10-01T20:35:40.632Z,97.60
2018-10-01T20:38:14.484Z,97.95
2018-10-01T20:40:43.788Z,97.91
2018-10-01T20:43:14.664Z,97.87
2018-10-01T20:45:43.469Z,97.93
2018-10-01T20:48:14.945Z,98.18
2018-10-01T20:50:44.739Z,98.49
2018-10-01T20:53:14.888Z,98.78
2018-10-01T20:55:44.480Z,98.84
2018-10-01T20:58:13.705Z,98.83
2018-10-01T21:00:47.912Z,98.88
2018-10-01T21:03:19.986Z,98.89
2018-10-01T21:05:49.719Z,98.71
2018-10-01T21:08:18.535Z,98.51
2018-10-01T21:10:48.143Z,98.38
2018-10-01T21:13:16.544Z,98.35
2018-10-01T21:15:47.928Z,98.30
2018-10-01T21:18:17.783Z,98.30
2018-10-01T21:20:47.816Z,98.59
2018-10-01T21:23:18.995Z,98.69
2018-10-01T21:25:51.254Z,98.73
2018-10-01T21:28:20.069Z,98.94
2018-10-01T21:30:48.400Z,99.01
2018-10-01T21:33:18.090Z,99.31
2018-10-01T21:35:49.596Z,99.56
2018-10-01T21:38:18.673Z,99.79
2018-10-01T21:40:49.693Z,100.00
2018-10-01T21:43:23.855Z,100.00
2018-10-01T21:45:55.806Z,100.00
2018-10-01T21:48:25.076Z,100.00
2018-10-01T21:51:00.619Z,100.00
2018-10-01T21:53:31.673Z,100.00
2018-10-01T21:56:02.599Z,100.00
2018-10-01T21:58:35.119Z,100.00
2018-10-01T22:01:11.147Z,100.00
2018-10-01T22:03:43.516Z,100.00
2018-10-01T22:06:14.204Z,100.00
2018-10-01T22:08:44.617Z,100.00
2018-10-01T22:11:19.823Z,100.00
2018-10-01T22:13:49.752Z,100.00
2018-10-01T22:16:20.875Z,100.00
2018-10-01T22:18:54.555Z,100.00
2018-10-01T22:21:24.492Z,100.00
2018-10-01T22:23:58.498Z,100.00
2018-10-01T22:26:28.757Z,100.00
2018-10-01T22:29:00.631Z,100.00
2018-10-01T22:31:29.893Z,100.00
2018-10-01T22:33:59.375Z,100.00
2018-10-01T22:36:28.720Z,100.00
2018-10-01T22:38:58.438Z,100.00
2018-10-01T22:41:28.625Z,100.00
2018-10-01T22:43:58.949Z,100.00
2018-10-01T22:46:28.755Z,100.00
2018-10-01T22:48:58.492Z,100.00
2018-10-01T22:51:28.240Z,100.00
2018-10-01T22:53:58.763Z,100.00
2018-10-01T22:56:27.954Z,100.00
2018-10-01T22:58:59.111Z,100.00
2018-10-01T23:01:28.989Z,100.00
2018-10-01T23:03:59.072Z,100.00
2018-10-01T23:06:29.239Z,100.00
2018-10-01T23:09:02.948Z,100.00
2018-10-01T23:11:32.508Z,100.00
2018-10-01T23:14:01.785Z,100.00
2018-10-01T23:16:30.994Z,100.00
2018-10-01T23:18:59.789Z,100.00
2018-10-01T23:21:28.503Z,100.00
2018-10-01T23:23:58.259Z,100.00
2018-10-01T23:26:27.935Z,100.00
2018-10-01T23:28:56.961Z,100.00
2018-10-01T23:31:26.651Z,100.00
2018-10-01T23:33:56.975Z,100.00
2018-10-01T23:36:30.787Z,100.00
2018-10-01T23:39:00.504Z,100.00
2018-10-01T23:41:30.853Z,100.00
2018-10-01T23:43:59.186Z,100.00
2018-10-01T23:46:28.117Z,100.00
2018-10-01T23:48:59.191Z,100.00
2018-10-01T23:51:27.856Z,100.00
2018-10-01T23:53:58.021Z,100.00
2018-10-01T23:56:28.309Z,100.00
2018-10-01T23:58:57.356Z,100.00
